createdAt,value
2023-05-15T00:01:35.460Z,12.50
2023-05-15T00:03:37.867Z,11.60
2023-05-15T00:05:40.453Z,10.57
2023-05-15T00:07:42.795Z,13.47
2023-05-15T00:09:45.327Z,10.40
2023-05-15T00:11:47.506Z,19.50
2023-05-15T00:13:50.510Z,11.27
2023-05-15T00:15:52.605Z,11.90
2023-05-15T00:17:54.658Z,12.27
2023-05-15T00:19:59.032Z,12.10
2023-05-15T00:22:01.249Z,16.30
2023-05-15T00:24:03.339Z,11.00
2023-05-15T00:26:05.513Z,11.90
2023-05-15T00:28:07.592Z,11.97
2023-05-15T00:30:09.920Z,11.87
2023-05-15T00:32:11.923Z,10.07
2023-05-15T00:34:14.005Z,12.63
2023-05-15T00:36:17.520Z,13.30
2023-05-15T00:38:19.604Z,21.27
2023-05-15T00:40:24.136Z,11.50
2023-05-15T00:42:28.161Z,11.30
2023-05-15T00:44:32.234Z,13.27
2023-05-15T00:46:36.749Z,11.50
2023-05-15T00:48:39.145Z,15.70
2023-05-15T00:50:44.017Z,13.87
2023-05-15T00:52:46.098Z,16.10
2023-05-15T00:54:48.218Z,17.73
2023-05-15T00:56:51.529Z,11.03
2023-05-15T00:58:54.540Z,11.00
2023-05-15T01:00:57.089Z,12.03
2023-05-15T01:02:59.524Z,11.50
2023-05-15T01:05:04.135Z,10.63
2023-05-15T01:07:06.201Z,11.97
2023-05-15T01:09:10.363Z,13.30
2023-05-15T01:11:14.299Z,11.43
2023-05-15T01:13:16.455Z,11.03
2023-05-15T01:15:18.526Z,19.07
2023-05-15T01:17:20.562Z,11.73
2023-05-15T01:19:22.684Z,15.13
2023-05-15T01:21:36.237Z,11.60
2023-05-15T01:24:06.458Z,14.63
2023-05-15T01:26:29.737Z,11.13
2023-05-15T01:28:34.298Z,11.50
2023-05-15T01:30:38.941Z,11.87
2023-05-15T01:33:17.344Z,11.37
2023-05-15T01:35:41.545Z,11.13
2023-05-15T01:37:50.078Z,10.60
2023-05-15T01:39:55.982Z,10.63
2023-05-15T01:42:04.158Z,12.10
2023-05-15T01:44:20.160Z,12.33
2023-05-15T01:46:23.812Z,14.30
2023-05-15T01:48:26.915Z,14.33
2023-05-15T01:50:32.899Z,17.40
2023-05-15T01:52:37.209Z,11.53
2023-05-15T01:54:40.283Z,11.40
2023-05-15T01:56:45.232Z,17.13
2023-05-15T01:58:48.355Z,14.23
2023-05-15T02:00:50.731Z,11.60
2023-05-15T02:02:53.255Z,11.80
2023-05-15T02:04:56.606Z,11.23
2023-05-15T02:07:00.620Z,13.07
2023-05-15T02:09:03.361Z,12.77
2023-05-15T02:11:06.645Z,11.00
2023-05-15T02:13:09.366Z,15.50
2023-05-15T02:15:12.039Z,13.73
2023-05-15T02:17:16.426Z,15.70
2023-05-15T02:19:18.474Z,13.53
2023-05-15T02:21:20.553Z,13.10
2023-05-15T02:23:22.755Z,13.83
2023-05-15T02:25:37.600Z,13.53
2023-05-15T02:27:47.580Z,13.13
2023-05-15T02:30:25.965Z,18.93
2023-05-15T02:32:48.860Z,12.47
2023-05-15T02:35:12.637Z,14.33
2023-05-15T02:37:18.324Z,16.50
2023-05-15T02:39:23.552Z,13.87
2023-05-15T02:41:25.849Z,14.40
2023-05-15T02:43:28.744Z,14.70
2023-05-15T02:45:31.187Z,18.47
2023-05-15T02:47:33.887Z,12.93
2023-05-15T02:49:35.988Z,16.27
2023-05-15T02:51:37.996Z,16.10
2023-05-15T02:53:41.519Z,13.70
2023-05-15T02:55:43.571Z,14.30
2023-05-15T02:57:45.709Z,14.37
2023-05-15T02:59:47.776Z,14.53
2023-05-15T03:01:49.996Z,18.77
2023-05-15T03:03:52.776Z,14.07
2023-05-15T03:05:54.967Z,18.20
2023-05-15T03:07:58.369Z,16.03
2023-05-15T03:10:00.565Z,13.13
2023-05-15T03:12:02.691Z,15.07
2023-05-15T03:14:04.584Z,16.10
2023-05-15T03:16:06.936Z,15.43
2023-05-15T03:18:08.923Z,15.43
2023-05-15T03:20:11.227Z,14.40
2023-05-15T03:22:13.377Z,15.00
2023-05-15T03:24:15.522Z,15.70
2023-05-15T03:26:17.590Z,16.70
2023-05-15T03:28:19.699Z,16.07
2023-05-15T03:30:21.690Z,15.63
2023-05-15T03:32:23.794Z,14.93
2023-05-15T03:34:26.054Z,15.67
2023-05-15T03:36:28.174Z,17.50
2023-05-15T03:38:30.197Z,18.03
2023-05-15T03:40:32.157Z,16.10
2023-05-15T03:42:34.296Z,16.73
2023-05-15T03:44:38.440Z,16.57
2023-05-15T03:46:40.668Z,16.13
2023-05-15T03:48:46.157Z,18.57
2023-05-15T03:50:48.279Z,22.37
2023-05-15T03:52:50.280Z,18.60
2023-05-15T03:54:52.290Z,18.73
2023-05-15T03:56:54.367Z,16.73
2023-05-15T03:58:56.360Z,15.47
2023-05-15T04:00:58.703Z,14.50
2023-05-15T04:03:01.690Z,14.60
2023-05-15T04:05:06.824Z,15.93
2023-05-15T04:07:08.940Z,21.00
2023-05-15T04:09:10.933Z,16.63
2023-05-15T04:11:13.081Z,17.60
2023-05-15T04:13:15.054Z,14.63
2023-05-15T04:15:21.658Z,17.13
2023-05-15T04:17:23.755Z,18.27
2023-05-15T04:19:25.776Z,15.80
2023-05-15T04:21:27.824Z,19.00
2023-05-15T04:23:30.018Z,17.50
2023-05-15T04:25:32.452Z,17.53
2023-05-15T04:27:34.558Z,19.60
2023-05-15T04:29:36.589Z,18.37
2023-05-15T04:31:38.743Z,19.07
2023-05-15T04:33:40.837Z,19.97
2023-05-15T04:35:43.330Z,20.20
2023-05-15T04:37:48.081Z,18.93
2023-05-15T04:39:50.136Z,16.67
2023-05-15T04:41:52.191Z,15.33
2023-05-15T04:43:54.265Z,15.90
2023-05-15T04:45:56.399Z,16.93
2023-05-15T04:47:58.378Z,19.33
2023-05-15T04:50:00.386Z,16.60
2023-05-15T04:52:02.381Z,15.90
2023-05-15T04:54:04.791Z,17.73
2023-05-15T04:56:07.054Z,14.90
2023-05-15T04:58:09.204Z,16.13
2023-05-15T05:00:12.283Z,15.80
2023-05-15T05:02:14.466Z,14.40
2023-05-15T05:04:19.482Z,17.60
2023-05-15T05:06:21.501Z,18.70
2023-05-15T05:08:23.544Z,14.07
2023-05-15T05:10:25.655Z,14.53
2023-05-15T05:12:28.113Z,13.30
2023-05-15T05:14:31.555Z,14.10
2023-05-15T05:16:33.708Z,17.30
2023-05-15T05:18:35.801Z,18.00
2023-05-15T05:20:37.861Z,12.60
2023-05-15T05:22:40.785Z,13.00
2023-05-15T05:24:42.753Z,11.77
2023-05-15T05:26:45.339Z,18.87
2023-05-15T05:28:47.420Z,11.60
2023-05-15T05:30:49.450Z,16.90
2023-05-15T05:32:51.543Z,15.17
2023-05-15T05:34:53.554Z,11.87
2023-05-15T05:36:55.763Z,13.77
2023-05-15T05:38:57.808Z,15.10
2023-05-15T05:41:01.338Z,15.10
2023-05-15T05:43:03.827Z,12.50
2023-05-15T05:45:06.830Z,12.37
2023-05-15T05:47:08.903Z,14.80
2023-05-15T05:49:11.515Z,12.57
2023-05-15T05:51:14.731Z,12.70
2023-05-15T05:53:16.756Z,11.30
2023-05-15T05:55:18.850Z,10.83
2023-05-15T05:57:20.989Z,13.93
2023-05-15T05:59:23.133Z,10.43
2023-05-15T06:01:25.894Z,12.60
2023-05-15T06:03:28.707Z,11.47
2023-05-15T06:05:30.873Z,11.17
2023-05-15T06:07:33.846Z,10.70
2023-05-15T06:09:35.908Z,11.50
2023-05-15T06:11:37.931Z,14.20
2023-05-15T06:13:40.655Z,13.60
2023-05-15T06:15:43.247Z,11.97
2023-05-15T06:17:45.365Z,10.37
2023-05-15T06:19:47.395Z,12.00
2023-05-15T06:21:49.452Z,12.50
2023-05-15T06:23:51.649Z,12.30
2023-05-15T06:25:53.751Z,10.00
2023-05-15T06:27:55.946Z,11.90
2023-05-15T06:29:57.987Z,12.73
2023-05-15T06:32:00.022Z,10.07
2023-05-15T06:34:02.121Z,14.50
2023-05-15T06:36:04.375Z,10.20
2023-05-15T06:38:06.386Z,13.10
2023-05-15T06:40:09.123Z,9.70
2023-05-15T06:42:11.151Z,12.20
2023-05-15T06:44:13.322Z,18.00
2023-05-15T06:46:17.089Z,13.97
2023-05-15T06:48:19.303Z,9.67
2023-05-15T06:50:21.556Z,9.10
2023-05-15T06:52:23.616Z,10.20
2023-05-15T06:54:25.846Z,8.27
2023-05-15T06:56:27.980Z,11.30
2023-05-15T06:58:29.992Z,14.13
2023-05-15T07:00:32.133Z,9.83
2023-05-15T07:02:34.341Z,8.33
2023-05-15T07:04:36.744Z,9.83
2023-05-15T07:06:39.066Z,10.53
2023-05-15T07:08:41.069Z,8.57
2023-05-15T07:10:43.110Z,9.50
2023-05-15T07:12:45.289Z,7.33
2023-05-15T07:14:47.575Z,8.67
2023-05-15T07:16:49.684Z,11.63
2023-05-15T07:18:51.817Z,8.00
2023-05-15T07:20:54.064Z,9.50
2023-05-15T07:22:56.942Z,6.97
2023-05-15T07:24:59.227Z,8.00
2023-05-15T07:27:01.266Z,6.60
2023-05-15T07:29:04.266Z,7.17
2023-05-15T07:31:07.679Z,11.37
2023-05-15T07:33:09.802Z,9.23
2023-05-15T07:35:12.133Z,6.73
2023-05-15T07:37:16.115Z,7.07
2023-05-15T07:39:18.873Z,8.07
2023-05-15T07:41:22.034Z,9.83
2023-05-15T07:43:24.148Z,8.63
2023-05-15T07:45:26.427Z,7.50
2023-05-15T07:47:28.967Z,7.70
2023-05-15T07:49:31.715Z,9.37
2023-05-15T07:51:33.869Z,6.53
2023-05-15T07:53:36.014Z,7.03
2023-05-15T07:55:38.172Z,10.63
2023-05-15T07:57:40.224Z,5.50
2023-05-15T07:59:42.197Z,17.23
2023-05-15T08:01:44.284Z,8.47
2023-05-15T08:03:46.339Z,6.40
2023-05-15T08:05:48.409Z,8.87
2023-05-15T08:07:50.773Z,5.60
2023-05-15T08:09:52.848Z,6.43
2023-05-15T08:11:56.408Z,6.57
2023-05-15T08:13:58.535Z,8.97
2023-05-15T08:16:00.794Z,10.90
2023-05-15T08:18:08.428Z,11.70
2023-05-15T08:20:11.688Z,5.63
2023-05-15T08:22:14.121Z,7.50
2023-05-15T08:24:16.135Z,6.23
2023-05-15T08:26:18.095Z,6.50
2023-05-15T08:28:20.098Z,10.27
2023-05-15T08:30:22.261Z,7.17
2023-05-15T08:32:24.441Z,6.53
2023-05-15T08:34:26.595Z,7.93
2023-05-15T08:36:28.670Z,6.60
2023-05-15T08:38:31.444Z,7.90
2023-05-15T08:40:39.038Z,7.60
2023-05-15T08:42:48.922Z,6.23
2023-05-15T08:44:51.013Z,5.40
2023-05-15T08:46:54.073Z,6.57
2023-05-15T08:48:57.090Z,5.53
2023-05-15T08:50:59.842Z,5.97
2023-05-15T08:53:02.091Z,7.43
2023-05-15T08:55:04.598Z,5.03
2023-05-15T08:57:09.309Z,5.37
2023-05-15T08:59:11.556Z,5.50
2023-05-15T09:01:14.377Z,4.70
2023-05-15T09:03:16.926Z,5.80
2023-05-15T09:05:19.263Z,4.73
2023-05-15T09:07:21.528Z,6.00
2023-05-15T09:09:24.431Z,4.10
2023-05-15T09:11:26.943Z,4.40
2023-05-15T09:13:30.482Z,4.40
2023-05-15T09:15:34.080Z,8.43
2023-05-15T09:17:36.373Z,4.83
2023-05-15T09:19:43.071Z,7.30
2023-05-15T09:21:45.284Z,6.33
2023-05-15T09:23:47.493Z,5.87
2023-05-15T09:25:53.470Z,5.57
2023-05-15T09:27:55.828Z,6.77
2023-05-15T09:30:09.112Z,10.77
2023-05-15T09:32:13.620Z,6.07
2023-05-15T09:34:16.112Z,5.50
2023-05-15T09:36:22.756Z,5.83
2023-05-15T09:38:25.542Z,5.43
2023-05-15T09:40:32.482Z,15.60
2023-05-15T09:42:35.734Z,6.33
2023-05-15T09:44:43.047Z,6.33
2023-05-15T09:46:45.318Z,8.80
2023-05-15T09:48:47.729Z,6.73
2023-05-15T09:50:50.315Z,5.03
2023-05-15T09:52:52.821Z,4.90
2023-05-15T09:54:55.230Z,4.93
2023-05-15T09:56:57.749Z,6.10
2023-05-15T09:59:00.154Z,10.00
2023-05-15T10:01:03.159Z,5.70
2023-05-15T10:03:06.316Z,6.50
2023-05-15T10:05:08.814Z,5.60
2023-05-15T10:07:11.193Z,6.20
2023-05-15T10:09:14.346Z,11.60
2023-05-15T10:11:16.597Z,5.47
2023-05-15T10:13:19.291Z,9.23
2023-05-15T10:15:23.080Z,8.40
2023-05-15T10:17:26.233Z,5.53
2023-05-15T10:19:28.905Z,10.80
2023-05-15T10:21:36.082Z,7.43
2023-05-15T10:23:41.385Z,9.73
2023-05-15T10:25:52.947Z,4.93
2023-05-15T10:27:55.423Z,7.43
2023-05-15T10:29:58.369Z,8.57
2023-05-15T10:32:01.278Z,7.40
2023-05-15T10:34:04.476Z,15.70
2023-05-15T10:36:07.661Z,13.20
2023-05-15T10:38:11.429Z,9.73
2023-05-15T10:40:15.796Z,9.07
2023-05-15T10:42:18.214Z,8.00
2023-05-15T10:44:20.691Z,6.90
2023-05-15T10:46:23.078Z,7.17
2023-05-15T10:48:25.743Z,7.40
2023-05-15T10:50:28.221Z,9.63
2023-05-15T10:52:35.939Z,8.97
2023-05-15T10:54:38.295Z,11.23
2023-05-15T10:56:42.275Z,13.70
2023-05-15T10:58:48.757Z,9.03
2023-05-15T11:00:51.307Z,6.70
2023-05-15T11:02:56.604Z,5.57
2023-05-15T11:05:01.329Z,6.07
2023-05-15T11:07:15.671Z,8.20
2023-05-15T11:09:38.450Z,7.90
2023-05-15T11:11:53.143Z,7.67
2023-05-15T11:14:10.352Z,9.50
2023-05-15T11:16:14.090Z,7.80
2023-05-15T11:18:16.978Z,6.20
2023-05-15T11:20:19.136Z,7.93
2023-05-15T11:22:28.574Z,8.80
2023-05-15T11:24:32.306Z,7.87
2023-05-15T11:26:34.562Z,7.60
2023-05-15T11:28:42.842Z,6.23
2023-05-15T11:30:47.219Z,10.70
2023-05-15T11:32:50.308Z,6.10
2023-05-15T11:34:52.545Z,14.83
2023-05-15T11:36:54.764Z,11.53
2023-05-15T11:38:57.197Z,18.63
2023-05-15T11:41:03.537Z,7.20
2023-05-15T11:43:18.222Z,9.33
2023-05-15T11:45:22.768Z,7.87
2023-05-15T11:47:25.521Z,6.10
2023-05-15T11:49:27.741Z,7.43
2023-05-15T11:51:30.219Z,6.63
2023-05-15T11:53:33.341Z,6.10
2023-05-15T11:55:40.828Z,4.90
2023-05-15T11:57:43.103Z,7.53
2023-05-15T11:59:45.372Z,10.53
2023-05-15T12:01:47.844Z,7.40
2023-05-15T12:03:51.278Z,5.77
2023-05-15T12:05:59.407Z,5.77
2023-05-15T12:08:02.527Z,9.33
2023-05-15T12:10:05.071Z,7.63
2023-05-15T12:12:13.820Z,6.17
2023-05-15T12:14:16.096Z,11.53
2023-05-15T12:16:18.415Z,14.47
2023-05-15T12:18:21.058Z,8.43
2023-05-15T12:20:23.956Z,6.20
2023-05-15T12:22:27.282Z,4.30
2023-05-15T12:24:29.432Z,5.73
2023-05-15T12:26:32.322Z,10.17
2023-05-15T12:28:35.418Z,5.20
2023-05-15T12:30:37.937Z,3.20
2023-05-15T12:32:40.452Z,4.27
2023-05-15T12:34:42.770Z,8.33
2023-05-15T12:36:45.305Z,3.90
2023-05-15T12:38:47.804Z,5.00
2023-05-15T12:40:53.628Z,8.67
2023-05-15T12:42:56.349Z,5.57
2023-05-15T12:44:58.584Z,4.20
2023-05-15T12:47:00.723Z,5.23
2023-05-15T12:49:02.861Z,6.33
2023-05-15T12:51:07.462Z,5.80
2023-05-15T12:53:14.066Z,6.33
2023-05-15T12:55:23.193Z,9.60
2023-05-15T12:57:25.354Z,7.13
2023-05-15T12:59:28.009Z,5.17
2023-05-15T13:01:30.318Z,5.23
2023-05-15T13:03:33.296Z,10.33
2023-05-15T13:05:37.267Z,14.23
2023-05-15T13:07:43.552Z,9.93
2023-05-15T13:09:47.502Z,9.63
2023-05-15T13:11:49.848Z,10.00
2023-05-15T13:13:53.173Z,4.30
2023-05-15T13:15:55.404Z,6.10
2023-05-15T13:18:13.645Z,5.23
2023-05-15T13:20:16.062Z,6.30
2023-05-15T13:22:18.314Z,3.33
2023-05-15T13:24:20.641Z,5.20
2023-05-15T13:26:22.830Z,3.57
2023-05-15T13:28:24.989Z,3.83
2023-05-15T13:30:28.544Z,6.03
2023-05-15T13:32:31.027Z,4.87
2023-05-15T13:34:33.279Z,6.03
2023-05-15T13:36:35.743Z,5.80
2023-05-15T13:38:37.988Z,4.60
2023-05-15T13:40:40.327Z,5.43
2023-05-15T13:42:43.581Z,5.07
2023-05-15T13:44:45.771Z,6.43
2023-05-15T13:46:48.034Z,9.60
2023-05-15T13:48:50.740Z,5.23
2023-05-15T13:50:53.100Z,7.97
2023-05-15T13:52:56.019Z,5.77
2023-05-15T13:54:58.388Z,6.47
2023-05-15T13:57:01.592Z,5.53
2023-05-15T13:59:04.069Z,5.83
2023-05-15T14:01:07.413Z,5.23
2023-05-15T14:03:10.754Z,7.90
2023-05-15T14:05:15.790Z,5.10
2023-05-15T14:07:17.987Z,5.87
2023-05-15T14:09:20.211Z,9.70
2023-05-15T14:11:22.954Z,5.13
2023-05-15T14:13:25.132Z,6.20
2023-05-15T14:15:27.405Z,5.10
2023-05-15T14:17:29.703Z,6.70
2023-05-15T14:19:31.987Z,4.30
2023-05-15T14:21:34.171Z,5.10
2023-05-15T14:23:36.409Z,6.40
2023-05-15T14:25:38.670Z,10.50
2023-05-15T14:27:41.027Z,4.23
2023-05-15T14:29:44.909Z,7.17
2023-05-15T14:31:47.176Z,8.60
2023-05-15T14:33:51.768Z,6.97
2023-05-15T14:35:54.763Z,6.30
2023-05-15T14:37:57.121Z,4.20
2023-05-15T14:39:59.368Z,5.33
2023-05-15T14:42:01.579Z,5.80
2023-05-15T14:44:03.957Z,12.57
2023-05-15T14:46:06.163Z,4.87
2023-05-15T14:48:08.461Z,6.10
2023-05-15T14:50:10.755Z,8.87
2023-05-15T14:52:13.050Z,4.30
2023-05-15T14:54:15.307Z,6.53
2023-05-15T14:56:17.516Z,6.00
2023-05-15T14:58:19.735Z,4.30
2023-05-15T15:00:22.085Z,6.73
2023-05-15T15:02:24.434Z,4.53
2023-05-15T15:04:28.074Z,10.63
2023-05-15T15:06:30.857Z,7.23
2023-05-15T15:08:33.018Z,4.80
2023-05-15T15:10:36.848Z,7.47
2023-05-15T15:12:39.110Z,7.27
2023-05-15T15:14:41.549Z,5.23
2023-05-15T15:16:44.507Z,7.80
2023-05-15T15:18:46.776Z,5.23
2023-05-15T15:20:49.347Z,6.50
2023-05-15T15:22:52.093Z,5.70
2023-05-15T15:24:54.333Z,7.83
2023-05-15T15:26:56.599Z,7.07
2023-05-15T15:29:01.010Z,6.80
2023-05-15T15:31:03.448Z,6.60
2023-05-15T15:33:05.740Z,7.37
2023-05-15T15:35:08.396Z,6.80
2023-05-15T15:37:11.458Z,6.10
2023-05-15T15:39:13.671Z,9.30
2023-05-15T15:41:15.933Z,9.10
2023-05-15T15:43:18.204Z,7.70
2023-05-15T15:45:20.532Z,8.67
2023-05-15T15:47:23.108Z,9.83
2023-05-15T15:49:25.324Z,6.43
2023-05-15T15:51:27.573Z,6.70
2023-05-15T15:53:34.032Z,5.80
2023-05-15T15:55:36.295Z,7.70
2023-05-15T15:57:38.486Z,7.23
2023-05-15T15:59:41.066Z,5.97
2023-05-15T16:01:43.686Z,7.90
2023-05-15T16:03:46.152Z,8.00
2023-05-15T16:05:48.491Z,13.00
2023-05-15T16:07:50.716Z,7.40
2023-05-15T16:10:00.454Z,7.37
2023-05-15T16:12:13.470Z,6.00
2023-05-15T16:14:15.786Z,6.17
2023-05-15T16:16:18.267Z,14.20
2023-05-15T16:18:20.571Z,7.67
2023-05-15T16:20:24.051Z,5.10
2023-05-15T16:22:26.675Z,7.90
2023-05-15T16:24:29.038Z,6.00
2023-05-15T16:26:31.493Z,10.67
2023-05-15T16:28:34.633Z,4.57
2023-05-15T16:30:48.264Z,5.63
2023-05-15T16:32:51.995Z,4.77
2023-05-15T16:34:54.260Z,5.70
2023-05-15T16:36:56.465Z,5.97
2023-05-15T16:39:00.485Z,9.10
2023-05-15T16:41:03.452Z,7.70
2023-05-15T16:43:05.912Z,4.80
2023-05-15T16:45:08.800Z,13.50
2023-05-15T16:47:11.055Z,5.03
2023-05-15T16:49:13.250Z,5.03
2023-05-15T16:51:15.538Z,5.60
2023-05-15T16:53:17.892Z,5.60
2023-05-15T16:55:20.234Z,6.83
2023-05-15T16:57:22.443Z,5.20
2023-05-15T16:59:24.649Z,11.40
2023-05-15T17:01:26.846Z,5.07
2023-05-15T17:03:29.149Z,4.53
2023-05-15T17:05:31.818Z,9.30
2023-05-15T17:07:34.340Z,6.97
2023-05-15T17:09:38.328Z,5.93
2023-05-15T17:11:40.596Z,7.03
2023-05-15T17:13:42.877Z,5.17
2023-05-15T17:15:47.171Z,5.70
2023-05-15T17:17:49.421Z,6.80
2023-05-15T17:19:55.497Z,6.00
2023-05-15T17:21:57.636Z,11.13
2023-05-15T17:23:59.961Z,5.80
2023-05-15T17:26:02.157Z,6.00
2023-05-15T17:28:04.434Z,6.73
2023-05-15T17:30:08.939Z,8.83
2023-05-15T17:32:11.591Z,6.03
2023-05-15T17:34:14.021Z,5.63
2023-05-15T17:36:16.252Z,4.77
2023-05-15T17:38:18.421Z,5.13
2023-05-15T17:40:20.780Z,10.13
2023-05-15T17:42:25.137Z,4.33
2023-05-15T17:44:29.745Z,8.43
2023-05-15T17:46:31.939Z,6.50
2023-05-15T17:48:34.190Z,6.27
2023-05-15T17:50:38.970Z,6.67
2023-05-15T17:52:41.258Z,7.17
2023-05-15T17:54:43.446Z,6.83
2023-05-15T17:56:45.667Z,6.57
2023-05-15T17:58:47.840Z,6.43
2023-05-15T18:00:52.122Z,12.97
2023-05-15T18:02:54.348Z,5.50
2023-05-15T18:04:57.121Z,8.40
2023-05-15T18:06:59.457Z,5.10
2023-05-15T18:09:01.780Z,8.17
2023-05-15T18:11:08.625Z,5.73
2023-05-15T18:13:20.122Z,4.57
2023-05-15T18:15:22.387Z,8.73
2023-05-15T18:17:24.605Z,5.33
2023-05-15T18:19:26.809Z,6.67
2023-05-15T18:21:29.119Z,4.90
2023-05-15T18:23:31.479Z,4.33
2023-05-15T18:25:36.946Z,6.17
2023-05-15T18:27:39.276Z,5.23
2023-05-15T18:29:42.931Z,7.20
2023-05-15T18:31:46.686Z,14.50
2023-05-15T18:33:48.856Z,13.70
2023-05-15T18:35:52.347Z,4.97
2023-05-15T18:37:54.587Z,7.87
2023-05-15T18:39:58.659Z,5.70
2023-05-15T18:42:01.195Z,9.03
2023-05-15T18:44:03.406Z,4.80
2023-05-15T18:46:05.941Z,7.43
2023-05-15T18:48:08.176Z,5.00
2023-05-15T18:50:11.151Z,11.17
2023-05-15T18:52:13.440Z,6.10
2023-05-15T18:54:15.684Z,4.47
2023-05-15T18:56:17.871Z,5.53
2023-05-15T18:58:19.968Z,5.93
2023-05-15T19:00:34.046Z,9.27
2023-05-15T19:02:40.402Z,7.53
2023-05-15T19:04:42.708Z,8.10
2023-05-15T19:06:44.954Z,6.33
2023-05-15T19:08:48.218Z,4.60
2023-05-15T19:10:50.861Z,4.87
2023-05-15T19:12:52.983Z,12.40
2023-05-15T19:14:55.349Z,5.23
2023-05-15T19:16:57.595Z,6.20
2023-05-15T19:18:59.870Z,5.10
2023-05-15T19:21:02.194Z,4.60
2023-05-15T19:23:04.307Z,7.90
2023-05-15T19:25:06.980Z,7.27
2023-05-15T19:27:09.122Z,5.13
2023-05-15T19:29:11.498Z,6.60
2023-05-15T19:31:24.056Z,5.87
2023-05-15T19:33:34.443Z,6.33
2023-05-15T19:35:37.598Z,10.97
2023-05-15T19:37:40.071Z,5.40
2023-05-15T19:39:42.285Z,5.80
2023-05-15T19:41:45.161Z,5.83
2023-05-15T19:43:50.516Z,8.77
2023-05-15T19:45:52.836Z,6.20
2023-05-15T19:47:55.740Z,9.67
2023-05-15T19:49:58.025Z,8.43
2023-05-15T19:52:00.311Z,9.17
2023-05-15T19:54:02.472Z,11.70
2023-05-15T19:56:05.272Z,10.47
2023-05-15T19:58:07.449Z,7.00
2023-05-15T20:00:10.530Z,7.80
2023-05-15T20:02:12.808Z,10.10
2023-05-15T20:04:15.034Z,11.63
2023-05-15T20:06:17.194Z,7.57
2023-05-15T20:08:19.451Z,11.40
2023-05-15T20:10:21.771Z,10.17
2023-05-15T20:12:24.084Z,9.73
2023-05-15T20:14:26.334Z,10.10
2023-05-15T20:16:28.589Z,17.03
2023-05-15T20:18:33.750Z,7.27
2023-05-15T20:20:36.924Z,7.20
2023-05-15T20:22:41.444Z,8.80
2023-05-15T20:24:44.292Z,8.37
2023-05-15T20:26:46.549Z,10.73
2023-05-15T20:28:48.789Z,8.00
2023-05-15T20:30:52.329Z,7.03
2023-05-15T20:32:54.714Z,7.10
2023-05-15T20:34:57.012Z,8.57
2023-05-15T20:36:59.279Z,6.17
2023-05-15T20:39:05.641Z,9.43
2023-05-15T20:41:07.913Z,6.47
2023-05-15T20:43:10.101Z,8.03
2023-05-15T20:45:12.564Z,6.50
2023-05-15T20:47:15.269Z,7.73
2023-05-15T20:49:17.441Z,6.47
2023-05-15T20:51:19.568Z,6.30
2023-05-15T20:53:21.980Z,6.03
2023-05-15T20:55:24.201Z,6.30
2023-05-15T20:57:26.429Z,7.23
2023-05-15T20:59:28.632Z,6.50
2023-05-15T21:01:30.897Z,7.87
2023-05-15T21:03:33.180Z,6.40
2023-05-15T21:05:35.613Z,9.27
2023-05-15T21:07:37.853Z,9.13
2023-05-15T21:09:40.456Z,9.20
2023-05-15T21:11:42.946Z,9.57
2023-05-15T21:13:45.104Z,8.07
2023-05-15T21:15:47.408Z,7.17
2023-05-15T21:17:49.606Z,7.17
2023-05-15T21:19:51.789Z,6.40
2023-05-15T21:21:53.966Z,7.43
2023-05-15T21:23:56.200Z,10.13
2023-05-15T21:25:58.317Z,6.93
2023-05-15T21:28:00.576Z,10.60
2023-05-15T21:30:02.956Z,7.20
2023-05-15T21:32:06.483Z,8.43
2023-05-15T21:34:08.691Z,7.03
2023-05-15T21:36:11.526Z,7.73
2023-05-15T21:38:13.645Z,9.20
2023-05-15T21:40:15.905Z,8.40
2023-05-15T21:42:18.055Z,14.47
2023-05-15T21:44:21.153Z,10.80
2023-05-15T21:46:23.444Z,9.67
2023-05-15T21:48:25.868Z,13.30
2023-05-15T21:50:28.331Z,10.27
2023-05-15T21:52:30.732Z,11.53
2023-05-15T21:54:32.956Z,12.20
2023-05-15T21:56:36.066Z,11.80
2023-05-15T21:58:38.223Z,10.77
2023-05-15T22:00:40.578Z,23.53
2023-05-15T22:02:43.009Z,11.43
2023-05-15T22:04:45.461Z,14.23
2023-05-15T22:06:48.469Z,11.77
2023-05-15T22:08:50.962Z,13.50
2023-05-15T22:10:53.444Z,12.60
2023-05-15T22:12:55.748Z,11.53
2023-05-15T22:14:59.754Z,13.73
2023-05-15T22:17:02.309Z,10.80
2023-05-15T22:19:04.567Z,15.83
2023-05-15T22:21:06.912Z,12.43
2023-05-15T22:23:09.009Z,12.40
2023-05-15T22:25:11.450Z,12.23
2023-05-15T22:27:16.562Z,15.13
2023-05-15T22:29:18.805Z,12.80
2023-05-15T22:31:20.980Z,13.17
2023-05-15T22:33:24.462Z,13.30
2023-05-15T22:35:28.162Z,16.17
2023-05-15T22:37:30.544Z,14.40
2023-05-15T22:39:33.275Z,13.90
2023-05-15T22:41:35.405Z,12.97
2023-05-15T22:43:38.160Z,16.60
2023-05-15T22:45:40.395Z,11.97
2023-05-15T22:47:42.448Z,12.93
2023-05-15T22:49:44.543Z,13.40
2023-05-15T22:51:46.951Z,13.60
2023-05-15T22:53:48.972Z,17.53
2023-05-15T22:55:51.013Z,14.30
2023-05-15T22:57:53.031Z,14.47
2023-05-15T22:59:55.244Z,17.43
2023-05-15T23:01:58.076Z,15.63
2023-05-15T23:04:00.211Z,18.50
2023-05-15T23:06:02.261Z,14.07
2023-05-15T23:08:04.600Z,16.03
2023-05-15T23:10:07.284Z,15.60
2023-05-15T23:12:09.283Z,18.63
2023-05-15T23:14:12.077Z,15.90
2023-05-15T23:16:14.158Z,16.97
2023-05-15T23:18:17.405Z,18.23
2023-05-15T23:20:19.612Z,15.20
2023-05-15T23:22:21.633Z,17.10
2023-05-15T23:24:23.830Z,14.60
2023-05-15T23:26:26.084Z,16.10
2023-05-15T23:28:28.063Z,14.43
2023-05-15T23:30:30.047Z,17.23
2023-05-15T23:32:32.069Z,17.27
2023-05-15T23:34:34.053Z,18.70
2023-05-15T23:36:36.107Z,17.00
2023-05-15T23:38:38.333Z,16.37
2023-05-15T23:40:40.592Z,19.37
2023-05-15T23:42:42.632Z,18.63
2023-05-15T23:44:44.670Z,19.43
2023-05-15T23:46:47.057Z,16.87
2023-05-15T23:48:49.087Z,16.87
2023-05-15T23:50:52.437Z,17.30
2023-05-15T23:52:54.569Z,19.10
2023-05-15T23:54:56.613Z,16.97
2023-05-15T23:56:58.555Z,20.37
2023-05-15T23:59:01.024Z,17.53
